Arrifana — CUQG2 — position and weather

sailwx.info

Track history (hours):
 
Tides and Currents Weather Stations Pressure Air Temp Water Temp Dewpoint Dewpoint Depression Visibility Wind Speed Wind Dir Waves Ship Positions

Arrifana

Last reported at 2017-Oct-17 01:13 UTC. Time now 2017-Oct-17 20:40 UTC.
Position N 37°08' W 008°32'.

Length 22 m.

Type: Fishing. MMSI: 263407290.

Date/timePositionNaut miles runAvg speedWind from/ knotsBaromVisibWave heightAir tempDewpointWater temp
2017-Oct-17 01:13N 37°08' W 008°32'2 7.8
2017-Oct-17 01:00N 37°06' W 008°32'5 9.3
2017-Oct-17 00:30N 37°04' W 008°37'4 4.7
2017-Oct-16 23:43N 37°05' W 008°32'2 9.1
2017-Oct-16 23:30N 37°07' W 008°32'  
2017-Oct-13 08:26N 37°08' W 008°32'0 0.0
2017-Oct-13 07:59N 37°08' W 008°32'3 5.8
2017-Oct-13 07:24N 37°05' W 008°31'3 6.5
2017-Oct-13 06:59N 37°02' W 008°30'5 4.3
2017-Oct-13 05:50N 36°58' W 008°27'1 0.5
2017-Oct-13 04:46N 36°58' W 008°26'0 0.4
2017-Oct-13 04:17N 36°58' W 008°26'0 0.4
2017-Oct-13 03:05N 36°58' W 008°26'12 9.8
2017-Oct-13 01:50N 37°03' W 008°41'  
2017-Oct-10 16:57N 37°01' W 008°56'0 0.0
2017-Oct-10 08:47N 37°01' W 008°56'14 3.2
2017-Oct-10 04:35N 37°14' W 008°54'0 0.4
2017-Oct-10 04:30N 37°14' W 008°54'0 0.1
2017-Oct-10 03:02N 37°14' W 008°54'0 0.2
2017-Oct-10 03:00N 37°14' W 008°54'14 0.8
2017-Oct-09 09:21N 37°01' W 008°56'15 5.7
2017-Oct-09 06:42N 37°16' W 008°54'0 0.2
2017-Oct-09 06:21N 37°16' W 008°54'0 0.2
2017-Oct-09 06:00N 37°16' W 008°54'0 0.2
2017-Oct-09 05:30N 37°16' W 008°54'0 0.1
2017-Oct-09 04:58N 37°16' W 008°54'2 3.4
2017-Oct-09 04:23N 37°14' W 008°55'15 9.4
2017-Oct-09 02:50N 36°59' W 008°56'410.7
2017-Oct-09 02:27N 37°01' W 008°52'0 0.8
2017-Oct-09 01:50N 37°01' W 008°51'0 0.5
2017-Oct-09 01:28N 37°01' W 008°51'3 4.6
2017-Oct-09 00:44N 37°03' W 008°47'1110.3
2017-Oct-08 23:39N 37°00' W 008°34'110.4
2017-Oct-08 23:31N 37°01' W 008°34'510.1
2017-Oct-08 23:00N 37°06' W 008°32'  
Track history (hours):
 
Tides and Currents Weather Stations Pressure Air Temp Water Temp Dewpoint Dewpoint Depression Visibility Wind Speed Wind Dir Waves Ship Positions

Arrifana

Last reported at 2017-Oct-17 01:13 UTC. Time now 2017-Oct-17 20:40 UTC.
Position N 37°08' W 008°32'.

Length 22 m.

Type: Fishing. MMSI: 263407290.

Date/timePositionNaut miles runAvg speedWind from/ knotsBaromVisibWave heightAir tempDewpointWater temp
2017-Oct-17 01:13N 37°08' W 008°32'2 7.8
2017-Oct-17 01:00N 37°06' W 008°32'5 9.3
2017-Oct-17 00:30N 37°04' W 008°37'4 4.7
2017-Oct-16 23:43N 37°05' W 008°32'2 9.1
2017-Oct-16 23:30N 37°07' W 008°32'  
2017-Oct-13 08:26N 37°08' W 008°32'0 0.0
2017-Oct-13 07:59N 37°08' W 008°32'3 5.8
2017-Oct-13 07:24N 37°05' W 008°31'3 6.5
2017-Oct-13 06:59N 37°02' W 008°30'5 4.3
2017-Oct-13 05:50N 36°58' W 008°27'1 0.5
2017-Oct-13 04:46N 36°58' W 008°26'0 0.4
2017-Oct-13 04:17N 36°58' W 008°26'0 0.4
2017-Oct-13 03:05N 36°58' W 008°26'12 9.8
2017-Oct-13 01:50N 37°03' W 008°41'  
2017-Oct-10 16:57N 37°01' W 008°56'0 0.0
2017-Oct-10 08:47N 37°01' W 008°56'14 3.2
2017-Oct-10 04:35N 37°14' W 008°54'0 0.4
2017-Oct-10 04:30N 37°14' W 008°54'0 0.1
2017-Oct-10 03:02N 37°14' W 008°54'0 0.2
2017-Oct-10 03:00N 37°14' W 008°54'14 0.8
2017-Oct-09 09:21N 37°01' W 008°56'15 5.7
2017-Oct-09 06:42N 37°16' W 008°54'0 0.2
2017-Oct-09 06:21N 37°16' W 008°54'0 0.2
2017-Oct-09 06:00N 37°16' W 008°54'0 0.2
2017-Oct-09 05:30N 37°16' W 008°54'0 0.1
2017-Oct-09 04:58N 37°16' W 008°54'2 3.4
2017-Oct-09 04:23N 37°14' W 008°55'15 9.4
2017-Oct-09 02:50N 36°59' W 008°56'410.7
2017-Oct-09 02:27N 37°01' W 008°52'0 0.8
2017-Oct-09 01:50N 37°01' W 008°51'0 0.5
2017-Oct-09 01:28N 37°01' W 008°51'3 4.6
2017-Oct-09 00:44N 37°03' W 008°47'1110.3
2017-Oct-08 23:39N 37°00' W 008°34'110.4
2017-Oct-08 23:31N 37°01' W 008°34'510.1
2017-Oct-08 23:00N 37°06' W 008°32'  

Dump ship's entire track history